sensor_id;sensor_type;location;lat;lon;timestamp;P1;durP1;ratioP1;P2;durP2;ratioP2
70929;SDS011;58588;48.102;19.682;2023-02-10T00:00:40;38.90;;;13.90;;
70929;SDS011;58588;48.102;19.682;2023-02-10T00:03:42;36.85;;;13.00;;
70929;SDS011;58588;48.102;19.682;2023-02-10T00:06:45;33.70;;;13.30;;
70929;SDS011;58588;48.102;19.682;2023-02-10T00:09:47;33.83;;;11.73;;
70929;SDS011;58588;48.102;19.682;2023-02-10T00:12:50;34.60;;;12.65;;
70929;SDS011;58588;48.102;19.682;2023-02-10T00:15:53;41.25;;;15.18;;
70929;SDS011;58588;48.102;19.682;2023-02-10T00:18:58;43.28;;;14.82;;
70929;SDS011;58588;48.102;19.682;2023-02-10T00:22:00;34.90;;;12.55;;
70929;SDS011;58588;48.102;19.682;2023-02-10T00:25:03;41.38;;;13.93;;
70929;SDS011;58588;48.102;19.682;2023-02-10T00:28:07;48.20;;;15.50;;
70929;SDS011;58588;48.102;19.682;2023-02-10T00:31:11;53.78;;;19.70;;
70929;SDS011;58588;48.102;19.682;2023-02-10T00:34:15;43.90;;;16.77;;
70929;SDS011;58588;48.102;19.682;2023-02-10T00:37:18;43.20;;;16.77;;
70929;SDS011;58588;48.102;19.682;2023-02-10T00:40:20;49.22;;;17.45;;
70929;SDS011;58588;48.102;19.682;2023-02-10T00:43:22;42.33;;;14.52;;
70929;SDS011;58588;48.102;19.682;2023-02-10T00:46:26;49.47;;;14.95;;
70929;SDS011;58588;48.102;19.682;2023-02-10T00:49:28;39.40;;;15.93;;
70929;SDS011;58588;48.102;19.682;2023-02-10T00:52:30;37.97;;;14.40;;
70929;SDS011;58588;48.102;19.682;2023-02-10T00:55:32;44.67;;;15.38;;
70929;SDS011;58588;48.102;19.682;2023-02-10T00:58:34;42.17;;;15.17;;
70929;SDS011;58588;48.102;19.682;2023-02-10T01:01:38;40.67;;;15.35;;
70929;SDS011;58588;48.102;19.682;2023-02-10T01:04:40;40.08;;;14.15;;
70929;SDS011;58588;48.102;19.682;2023-02-10T01:07:42;37.93;;;13.50;;
70929;SDS011;58588;48.102;19.682;2023-02-10T01:10:44;37.63;;;13.70;;
70929;SDS011;58588;48.102;19.682;2023-02-10T01:13:46;38.83;;;13.27;;
70929;SDS011;58588;48.102;19.682;2023-02-10T01:16:50;36.33;;;13.20;;
70929;SDS011;58588;48.102;19.682;2023-02-10T01:19:52;42.08;;;14.00;;
70929;SDS011;58588;48.102;19.682;2023-02-10T01:22:54;45.50;;;14.15;;
70929;SDS011;58588;48.102;19.682;2023-02-10T01:25:58;43.75;;;13.82;;
70929;SDS011;58588;48.102;19.682;2023-02-10T01:29:00;39.50;;;13.20;;
70929;SDS011;58588;48.102;19.682;2023-02-10T01:32:04;39.50;;;12.48;;
70929;SDS011;58588;48.102;19.682;2023-02-10T01:35:06;32.28;;;12.02;;
70929;SDS011;58588;48.102;19.682;2023-02-10T01:38:08;37.40;;;11.43;;
70929;SDS011;58588;48.102;19.682;2023-02-10T01:41:10;35.58;;;12.35;;
70929;SDS011;58588;48.102;19.682;2023-02-10T01:47:55;36.10;;;11.77;;
70929;SDS011;58588;48.102;19.682;2023-02-10T01:50:59;36.97;;;12.23;;
70929;SDS011;58588;48.102;19.682;2023-02-10T01:54:05;34.53;;;13.00;;
70929;SDS011;58588;48.102;19.682;2023-02-10T01:57:11;35.42;;;13.15;;
70929;SDS011;58588;48.102;19.682;2023-02-10T02:00:14;42.63;;;13.37;;
70929;SDS011;58588;48.102;19.682;2023-02-10T02:03:18;33.13;;;11.77;;
70929;SDS011;58588;48.102;19.682;2023-02-10T02:06:20;38.63;;;12.85;;
70929;SDS011;58588;48.102;19.682;2023-02-10T02:09:23;33.07;;;10.90;;
70929;SDS011;58588;48.102;19.682;2023-02-10T02:12:26;27.65;;;11.50;;
70929;SDS011;58588;48.102;19.682;2023-02-10T02:15:38;34.85;;;11.68;;
70929;SDS011;58588;48.102;19.682;2023-02-10T02:18:50;32.70;;;10.68;;
70929;SDS011;58588;48.102;19.682;2023-02-10T02:22:10;29.23;;;9.95;;
70929;SDS011;58588;48.102;19.682;2023-02-10T02:25:32;34.05;;;11.82;;
70929;SDS011;58588;48.102;19.682;2023-02-10T02:28:53;27.50;;;10.02;;
70929;SDS011;58588;48.102;19.682;2023-02-10T02:32:12;29.80;;;10.87;;
70929;SDS011;58588;48.102;19.682;2023-02-10T02:35:19;29.75;;;10.13;;
70929;SDS011;58588;48.102;19.682;2023-02-10T02:38:26;25.23;;;9.25;;
70929;SDS011;58588;48.102;19.682;2023-02-10T02:41:28;30.73;;;8.87;;
70929;SDS011;58588;48.102;19.682;2023-02-10T02:44:33;22.50;;;8.88;;
70929;SDS011;58588;48.102;19.682;2023-02-10T02:47:41;26.85;;;9.20;;
70929;SDS011;58588;48.102;19.682;2023-02-10T02:51:03;22.85;;;9.43;;
70929;SDS011;58588;48.102;19.682;2023-02-10T02:54:10;36.38;;;11.15;;
70929;SDS011;58588;48.102;19.682;2023-02-10T02:57:19;39.00;;;11.63;;
70929;SDS011;58588;48.102;19.682;2023-02-10T03:00:30;35.10;;;11.68;;
70929;SDS011;58588;48.102;19.682;2023-02-10T03:03:36;30.77;;;10.90;;
70929;SDS011;58588;48.102;19.682;2023-02-10T03:06:38;32.78;;;11.10;;
70929;SDS011;58588;48.102;19.682;2023-02-10T03:09:40;34.97;;;11.73;;
70929;SDS011;58588;48.102;19.682;2023-02-10T03:12:43;40.90;;;14.53;;
70929;SDS011;58588;48.102;19.682;2023-02-10T03:15:45;35.05;;;12.70;;
70929;SDS011;58588;48.102;19.682;2023-02-10T03:18:49;30.95;;;11.18;;
70929;SDS011;58588;48.102;19.682;2023-02-10T03:21:51;32.80;;;11.10;;
70929;SDS011;58588;48.102;19.682;2023-02-10T03:24:53;34.47;;;13.43;;
70929;SDS011;58588;48.102;19.682;2023-02-10T03:27:55;33.00;;;12.05;;
70929;SDS011;58588;48.102;19.682;2023-02-10T03:30:57;31.63;;;10.77;;
70929;SDS011;58588;48.102;19.682;2023-02-10T03:34:05;29.03;;;10.07;;
70929;SDS011;58588;48.102;19.682;2023-02-10T03:37:07;26.90;;;10.15;;
70929;SDS011;58588;48.102;19.682;2023-02-10T03:40:09;28.95;;;10.35;;
70929;SDS011;58588;48.102;19.682;2023-02-10T03:43:12;28.30;;;9.87;;
70929;SDS011;58588;48.102;19.682;2023-02-10T03:46:14;28.40;;;8.45;;
70929;SDS011;58588;48.102;19.682;2023-02-10T03:49:18;30.20;;;10.57;;
70929;SDS011;58588;48.102;19.682;2023-02-10T03:52:20;28.30;;;9.95;;
70929;SDS011;58588;48.102;19.682;2023-02-10T03:55:22;25.45;;;9.20;;
70929;SDS011;58588;48.102;19.682;2023-02-10T03:58:24;29.17;;;9.88;;
70929;SDS011;58588;48.102;19.682;2023-02-10T04:01:26;23.38;;;9.05;;
70929;SDS011;58588;48.102;19.682;2023-02-10T04:04:29;34.30;;;12.10;;
70929;SDS011;58588;48.102;19.682;2023-02-10T04:07:31;29.67;;;10.82;;
70929;SDS011;58588;48.102;19.682;2023-02-10T04:10:33;38.13;;;14.52;;
70929;SDS011;58588;48.102;19.682;2023-02-10T04:13:36;38.00;;;13.90;;
70929;SDS011;58588;48.102;19.682;2023-02-10T04:16:38;34.00;;;13.68;;
70929;SDS011;58588;48.102;19.682;2023-02-10T04:19:41;42.17;;;14.50;;
70929;SDS011;58588;48.102;19.682;2023-02-10T04:22:43;42.33;;;15.07;;
70929;SDS011;58588;48.102;19.682;2023-02-10T04:25:45;36.17;;;12.20;;
70929;SDS011;58588;48.102;19.682;2023-02-10T04:28:47;30.33;;;11.07;;
70929;SDS011;58588;48.102;19.682;2023-02-10T04:31:50;33.13;;;11.18;;
70929;SDS011;58588;48.102;19.682;2023-02-10T04:34:53;27.77;;;10.97;;
70929;SDS011;58588;48.102;19.682;2023-02-10T04:37:55;29.90;;;11.23;;
70929;SDS011;58588;48.102;19.682;2023-02-10T04:40:59;36.65;;;12.43;;
70929;SDS011;58588;48.102;19.682;2023-02-10T04:44:03;46.70;;;16.13;;
70929;SDS011;58588;48.102;19.682;2023-02-10T04:47:05;48.10;;;16.33;;
70929;SDS011;58588;48.102;19.682;2023-02-10T04:50:09;46.10;;;15.43;;
70929;SDS011;58588;48.102;19.682;2023-02-10T04:53:11;44.72;;;13.43;;
70929;SDS011;58588;48.102;19.682;2023-02-10T04:56:13;60.55;;;17.92;;
70929;SDS011;58588;48.102;19.682;2023-02-10T04:59:16;49.97;;;15.73;;
70929;SDS011;58588;48.102;19.682;2023-02-10T05:05:54;44.80;;;15.50;;
70929;SDS011;58588;48.102;19.682;2023-02-10T05:08:56;36.25;;;14.05;;
70929;SDS011;58588;48.102;19.682;2023-02-10T05:11:58;45.17;;;13.90;;
70929;SDS011;58588;48.102;19.682;2023-02-10T05:15:00;42.47;;;15.43;;
70929;SDS011;58588;48.102;19.682;2023-02-10T05:18:02;41.00;;;12.52;;
70929;SDS011;58588;48.102;19.682;2023-02-10T05:21:06;29.27;;;11.00;;
70929;SDS011;58588;48.102;19.682;2023-02-10T05:24:09;35.90;;;12.15;;
70929;SDS011;58588;48.102;19.682;2023-02-10T05:27:11;42.38;;;14.57;;
70929;SDS011;58588;48.102;19.682;2023-02-10T05:30:13;47.78;;;16.98;;
70929;SDS011;58588;48.102;19.682;2023-02-10T05:33:15;45.78;;;15.80;;
70929;SDS011;58588;48.102;19.682;2023-02-10T05:36:19;33.07;;;12.07;;
70929;SDS011;58588;48.102;19.682;2023-02-10T05:39:21;32.72;;;12.73;;
70929;SDS011;58588;48.102;19.682;2023-02-10T05:42:26;38.28;;;12.32;;
70929;SDS011;58588;48.102;19.682;2023-02-10T05:45:28;40.17;;;14.07;;
70929;SDS011;58588;48.102;19.682;2023-02-10T05:48:30;49.83;;;15.50;;
70929;SDS011;58588;48.102;19.682;2023-02-10T05:51:34;32.05;;;13.52;;
70929;SDS011;58588;48.102;19.682;2023-02-10T05:54:39;46.83;;;14.40;;
70929;SDS011;58588;48.102;19.682;2023-02-10T05:57:41;43.00;;;15.80;;
70929;SDS011;58588;48.102;19.682;2023-02-10T06:00:43;35.53;;;14.65;;
70929;SDS011;58588;48.102;19.682;2023-02-10T06:03:45;44.75;;;14.77;;
70929;SDS011;58588;48.102;19.682;2023-02-10T06:06:49;36.77;;;13.07;;
70929;SDS011;58588;48.102;19.682;2023-02-10T06:09:51;39.17;;;12.45;;
70929;SDS011;58588;48.102;19.682;2023-02-10T06:12:53;28.63;;;10.98;;
70929;SDS011;58588;48.102;19.682;2023-02-10T06:15:55;33.77;;;12.60;;
70929;SDS011;58588;48.102;19.682;2023-02-10T06:18:57;38.58;;;13.88;;
70929;SDS011;58588;48.102;19.682;2023-02-10T06:22:00;34.83;;;13.57;;
70929;SDS011;58588;48.102;19.682;2023-02-10T06:25:03;33.75;;;12.63;;
70929;SDS011;58588;48.102;19.682;2023-02-10T06:28:05;33.05;;;11.27;;
70929;SDS011;58588;48.102;19.682;2023-02-10T06:31:07;34.63;;;13.18;;
70929;SDS011;58588;48.102;19.682;2023-02-10T06:34:09;41.22;;;13.43;;
70929;SDS011;58588;48.102;19.682;2023-02-10T06:37:13;39.70;;;15.03;;
70929;SDS011;58588;48.102;19.682;2023-02-10T06:40:15;49.75;;;16.10;;
70929;SDS011;58588;48.102;19.682;2023-02-10T06:43:18;57.70;;;20.60;;
70929;SDS011;58588;48.102;19.682;2023-02-10T06:46:20;67.30;;;23.37;;
70929;SDS011;58588;48.102;19.682;2023-02-10T06:49:22;67.13;;;21.90;;
70929;SDS011;58588;48.102;19.682;2023-02-10T06:52:25;60.50;;;21.52;;
70929;SDS011;58588;48.102;19.682;2023-02-10T06:55:27;54.58;;;19.45;;
70929;SDS011;58588;48.102;19.682;2023-02-10T06:58:30;58.80;;;18.80;;
70929;SDS011;58588;48.102;19.682;2023-02-10T07:01:32;50.95;;;18.77;;
70929;SDS011;58588;48.102;19.682;2023-02-10T07:04:34;57.00;;;18.75;;
70929;SDS011;58588;48.102;19.682;2023-02-10T07:07:40;52.40;;;15.63;;
70929;SDS011;58588;48.102;19.682;2023-02-10T07:10:42;63.03;;;17.73;;
70929;SDS011;58588;48.102;19.682;2023-02-10T07:13:44;56.65;;;18.90;;
70929;SDS011;58588;48.102;19.682;2023-02-10T07:16:46;68.90;;;20.17;;
70929;SDS011;58588;48.102;19.682;2023-02-10T07:19:49;73.55;;;23.83;;
70929;SDS011;58588;48.102;19.682;2023-02-10T07:22:52;72.32;;;26.15;;
70929;SDS011;58588;48.102;19.682;2023-02-10T07:25:54;68.13;;;25.75;;
70929;SDS011;58588;48.102;19.682;2023-02-10T07:28:56;77.22;;;27.05;;
70929;SDS011;58588;48.102;19.682;2023-02-10T07:31:58;91.57;;;33.55;;
70929;SDS011;58588;48.102;19.682;2023-02-10T07:35:00;89.28;;;33.97;;
70929;SDS011;58588;48.102;19.682;2023-02-10T07:38:03;84.10;;;31.13;;
70929;SDS011;58588;48.102;19.682;2023-02-10T07:41:06;92.15;;;34.40;;
70929;SDS011;58588;48.102;19.682;2023-02-10T07:44:09;132.35;;;45.22;;
70929;SDS011;58588;48.102;19.682;2023-02-10T07:47:11;88.87;;;33.87;;
70929;SDS011;58588;48.102;19.682;2023-02-10T07:50:13;99.22;;;34.70;;
70929;SDS011;58588;48.102;19.682;2023-02-10T07:53:16;82.90;;;31.55;;
70929;SDS011;58588;48.102;19.682;2023-02-10T07:56:19;76.32;;;28.98;;
70929;SDS011;58588;48.102;19.682;2023-02-10T07:59:21;65.47;;;25.35;;
70929;SDS011;58588;48.102;19.682;2023-02-10T08:02:23;71.70;;;27.55;;
70929;SDS011;58588;48.102;19.682;2023-02-10T08:05:25;93.57;;;34.78;;
70929;SDS011;58588;48.102;19.682;2023-02-10T08:08:29;77.77;;;30.63;;
70929;SDS011;58588;48.102;19.682;2023-02-10T08:11:32;70.60;;;27.95;;
70929;SDS011;58588;48.102;19.682;2023-02-10T08:14:34;75.63;;;28.85;;
70929;SDS011;58588;48.102;19.682;2023-02-10T08:17:36;77.80;;;30.23;;
70929;SDS011;58588;48.102;19.682;2023-02-10T08:20:38;129.23;;;45.95;;
70929;SDS011;58588;48.102;19.682;2023-02-10T08:23:43;82.05;;;31.55;;
70929;SDS011;58588;48.102;19.682;2023-02-10T08:26:45;74.20;;;27.08;;
70929;SDS011;58588;48.102;19.682;2023-02-10T08:29:47;54.25;;;20.33;;
70929;SDS011;58588;48.102;19.682;2023-02-10T08:32:49;53.30;;;19.08;;
70929;SDS011;58588;48.102;19.682;2023-02-10T08:35:52;43.05;;;17.75;;
70929;SDS011;58588;48.102;19.682;2023-02-10T08:38:55;60.60;;;21.77;;
70929;SDS011;58588;48.102;19.682;2023-02-10T08:41:57;43.05;;;16.77;;
70929;SDS011;58588;48.102;19.682;2023-02-10T08:44:59;39.20;;;13.73;;
70929;SDS011;58588;48.102;19.682;2023-02-10T08:48:01;39.60;;;14.02;;
70929;SDS011;58588;48.102;19.682;2023-02-10T08:51:05;49.50;;;18.27;;
70929;SDS011;58588;48.102;19.682;2023-02-10T08:54:10;43.78;;;15.45;;
70929;SDS011;58588;48.102;19.682;2023-02-10T08:57:12;59.65;;;21.20;;
70929;SDS011;58588;48.102;19.682;2023-02-10T09:00:14;62.05;;;20.70;;
70929;SDS011;58588;48.102;19.682;2023-02-10T09:03:17;57.93;;;20.90;;
70929;SDS011;58588;48.102;19.682;2023-02-10T09:06:20;58.95;;;19.58;;
70929;SDS011;58588;48.102;19.682;2023-02-10T09:09:26;39.30;;;15.65;;
70929;SDS011;58588;48.102;19.682;2023-02-10T09:12:28;55.63;;;19.77;;
70929;SDS011;58588;48.102;19.682;2023-02-10T09:15:30;47.27;;;18.40;;
70929;SDS011;58588;48.102;19.682;2023-02-10T09:18:32;61.92;;;23.33;;
70929;SDS011;58588;48.102;19.682;2023-02-10T09:21:35;52.88;;;19.65;;
70929;SDS011;58588;48.102;19.682;2023-02-10T09:24:38;40.60;;;14.55;;
70929;SDS011;58588;48.102;19.682;2023-02-10T09:27:42;40.17;;;16.20;;
70929;SDS011;58588;48.102;19.682;2023-02-10T09:30:44;89.65;;;28.27;;
70929;SDS011;58588;48.102;19.682;2023-02-10T09:33:46;68.30;;;23.55;;
70929;SDS011;58588;48.102;19.682;2023-02-10T09:36:48;51.22;;;17.30;;
70929;SDS011;58588;48.102;19.682;2023-02-10T09:39:55;37.97;;;13.93;;
70929;SDS011;58588;48.102;19.682;2023-02-10T09:43:07;35.50;;;12.53;;
70929;SDS011;58588;48.102;19.682;2023-02-10T09:46:23;37.30;;;13.10;;
70929;SDS011;58588;48.102;19.682;2023-02-10T09:49:43;24.60;;;7.88;;
70929;SDS011;58588;48.102;19.682;2023-02-10T09:52:55;21.73;;;7.97;;
70929;SDS011;58588;48.102;19.682;2023-02-10T09:56:14;22.35;;;7.50;;
70929;SDS011;58588;48.102;19.682;2023-02-10T09:59:20;21.83;;;6.93;;
70929;SDS011;58588;48.102;19.682;2023-02-10T10:02:26;20.88;;;6.75;;
70929;SDS011;58588;48.102;19.682;2023-02-10T10:05:38;22.02;;;7.05;;
70929;SDS011;58588;48.102;19.682;2023-02-10T10:08:49;20.25;;;7.53;;
70929;SDS011;58588;48.102;19.682;2023-02-10T10:12:01;23.17;;;6.88;;
70929;SDS011;58588;48.102;19.682;2023-02-10T10:15:03;21.33;;;7.27;;
70929;SDS011;58588;48.102;19.682;2023-02-10T10:18:08;15.23;;;6.07;;
70929;SDS011;58588;48.102;19.682;2023-02-10T10:21:15;43.03;;;13.57;;
70929;SDS011;58588;48.102;19.682;2023-02-10T10:24:33;31.38;;;11.10;;
70929;SDS011;58588;48.102;19.682;2023-02-10T10:27:49;23.60;;;8.27;;
70929;SDS011;58588;48.102;19.682;2023-02-10T10:30:58;24.23;;;9.00;;
70929;SDS011;58588;48.102;19.682;2023-02-10T10:34:08;24.05;;;9.38;;
70929;SDS011;58588;48.102;19.682;2023-02-10T10:37:15;21.75;;;8.65;;
70929;SDS011;58588;48.102;19.682;2023-02-10T10:40:27;23.58;;;8.57;;
70929;SDS011;58588;48.102;19.682;2023-02-10T10:43:37;28.42;;;9.48;;
70929;SDS011;58588;48.102;19.682;2023-02-10T10:46:47;25.37;;;8.67;;
70929;SDS011;58588;48.102;19.682;2023-02-10T10:49:51;17.73;;;6.90;;
70929;SDS011;58588;48.102;19.682;2023-02-10T10:52:54;22.23;;;7.68;;
70929;SDS011;58588;48.102;19.682;2023-02-10T10:55:57;19.58;;;7.55;;
70929;SDS011;58588;48.102;19.682;2023-02-10T10:59:06;19.67;;;6.50;;
70929;SDS011;58588;48.102;19.682;2023-02-10T11:02:15;22.40;;;8.80;;
70929;SDS011;58588;48.102;19.682;2023-02-10T11:05:19;19.38;;;7.43;;
70929;SDS011;58588;48.102;19.682;2023-02-10T11:08:22;19.85;;;7.03;;
70929;SDS011;58588;48.102;19.682;2023-02-10T11:11:30;22.67;;;8.77;;
70929;SDS011;58588;48.102;19.682;2023-02-10T11:14:38;23.77;;;9.13;;
70929;SDS011;58588;48.102;19.682;2023-02-10T11:17:42;21.40;;;7.60;;
70929;SDS011;58588;48.102;19.682;2023-02-10T11:20:53;22.27;;;8.02;;
70929;SDS011;58588;48.102;19.682;2023-02-10T11:23:57;19.27;;;6.70;;
70929;SDS011;58588;48.102;19.682;2023-02-10T11:26:59;19.13;;;6.88;;
70929;SDS011;58588;48.102;19.682;2023-02-10T11:30:04;17.92;;;6.72;;
70929;SDS011;58588;48.102;19.682;2023-02-10T11:33:16;14.57;;;5.17;;
70929;SDS011;58588;48.102;19.682;2023-02-10T11:36:27;19.42;;;6.90;;
70929;SDS011;58588;48.102;19.682;2023-02-10T11:39:32;18.20;;;7.10;;
70929;SDS011;58588;48.102;19.682;2023-02-10T11:42:37;16.95;;;6.22;;
70929;SDS011;58588;48.102;19.682;2023-02-10T11:45:50;17.58;;;6.97;;
70929;SDS011;58588;48.102;19.682;2023-02-10T11:48:54;17.80;;;6.53;;
70929;SDS011;58588;48.102;19.682;2023-02-10T11:51:57;18.63;;;6.25;;
70929;SDS011;58588;48.102;19.682;2023-02-10T11:55:01;20.20;;;6.97;;
70929;SDS011;58588;48.102;19.682;2023-02-10T11:58:10;16.98;;;6.35;;
70929;SDS011;58588;48.102;19.682;2023-02-10T12:01:47;21.77;;;7.00;;
70929;SDS011;58588;48.102;19.682;2023-02-10T12:04:55;19.90;;;7.00;;
70929;SDS011;58588;48.102;19.682;2023-02-10T12:08:10;17.07;;;6.57;;
70929;SDS011;58588;48.102;19.682;2023-02-10T12:11:24;19.58;;;6.78;;
70929;SDS011;58588;48.102;19.682;2023-02-10T12:14:35;20.23;;;6.85;;
70929;SDS011;58588;48.102;19.682;2023-02-10T12:17:51;19.70;;;7.07;;
70929;SDS011;58588;48.102;19.682;2023-02-10T12:21:08;18.37;;;6.47;;
70929;SDS011;58588;48.102;19.682;2023-02-10T12:24:22;20.70;;;7.70;;
70929;SDS011;58588;48.102;19.682;2023-02-10T12:27:41;19.48;;;7.18;;
70929;SDS011;58588;48.102;19.682;2023-02-10T12:30:57;16.95;;;6.65;;
70929;SDS011;58588;48.102;19.682;2023-02-10T12:34:18;17.92;;;6.53;;
70929;SDS011;58588;48.102;19.682;2023-02-10T12:37:34;17.50;;;6.53;;
70929;SDS011;58588;48.102;19.682;2023-02-10T12:40:48;16.73;;;7.00;;
70929;SDS011;58588;48.102;19.682;2023-02-10T12:44:02;16.58;;;6.03;;
70929;SDS011;58588;48.102;19.682;2023-02-10T12:47:26;18.65;;;6.50;;
70929;SDS011;58588;48.102;19.682;2023-02-10T12:50:43;16.38;;;5.60;;
70929;SDS011;58588;48.102;19.682;2023-02-10T12:53:53;18.33;;;7.00;;
70929;SDS011;58588;48.102;19.682;2023-02-10T12:57:00;17.87;;;6.77;;
70929;SDS011;58588;48.102;19.682;2023-02-10T13:00:09;18.05;;;6.80;;
70929;SDS011;58588;48.102;19.682;2023-02-10T13:03:17;19.88;;;6.47;;
70929;SDS011;58588;48.102;19.682;2023-02-10T13:06:27;20.15;;;6.82;;
70929;SDS011;58588;48.102;19.682;2023-02-10T13:09:34;18.73;;;6.47;;
70929;SDS011;58588;48.102;19.682;2023-02-10T13:12:44;16.10;;;5.40;;
70929;SDS011;58588;48.102;19.682;2023-02-10T13:15:49;16.73;;;6.15;;
70929;SDS011;58588;48.102;19.682;2023-02-10T13:18:56;21.80;;;7.10;;
70929;SDS011;58588;48.102;19.682;2023-02-10T13:22:09;16.92;;;6.65;;
70929;SDS011;58588;48.102;19.682;2023-02-10T13:25:16;16.20;;;6.27;;
70929;SDS011;58588;48.102;19.682;2023-02-10T13:28:24;16.13;;;5.97;;
70929;SDS011;58588;48.102;19.682;2023-02-10T13:31:43;17.92;;;6.75;;
70929;SDS011;58588;48.102;19.682;2023-02-10T13:34:54;19.30;;;7.30;;
70929;SDS011;58588;48.102;19.682;2023-02-10T13:37:59;18.13;;;7.20;;
70929;SDS011;58588;48.102;19.682;2023-02-10T13:41:16;19.37;;;6.90;;
70929;SDS011;58588;48.102;19.682;2023-02-10T13:44:44;15.43;;;6.30;;
70929;SDS011;58588;48.102;19.682;2023-02-10T13:47:48;17.88;;;6.90;;
70929;SDS011;58588;48.102;19.682;2023-02-10T13:50:52;19.10;;;6.85;;
70929;SDS011;58588;48.102;19.682;2023-02-10T13:53:59;17.63;;;6.95;;
70929;SDS011;58588;48.102;19.682;2023-02-10T13:57:01;22.73;;;7.67;;
70929;SDS011;58588;48.102;19.682;2023-02-10T14:00:14;18.57;;;7.03;;
70929;SDS011;58588;48.102;19.682;2023-02-10T14:03:19;17.77;;;6.70;;
70929;SDS011;58588;48.102;19.682;2023-02-10T14:06:31;19.10;;;7.82;;
70929;SDS011;58588;48.102;19.682;2023-02-10T14:09:35;19.20;;;7.32;;
70929;SDS011;58588;48.102;19.682;2023-02-10T14:12:38;18.80;;;7.37;;
70929;SDS011;58588;48.102;19.682;2023-02-10T14:15:42;20.00;;;7.60;;
70929;SDS011;58588;48.102;19.682;2023-02-10T14:18:57;24.27;;;8.35;;
70929;SDS011;58588;48.102;19.682;2023-02-10T14:22:04;23.23;;;7.97;;
70929;SDS011;58588;48.102;19.682;2023-02-10T14:25:16;21.55;;;7.95;;
70929;SDS011;58588;48.102;19.682;2023-02-10T14:28:21;22.40;;;7.83;;
70929;SDS011;58588;48.102;19.682;2023-02-10T14:31:27;20.83;;;8.07;;
70929;SDS011;58588;48.102;19.682;2023-02-10T14:34:32;20.60;;;8.25;;
70929;SDS011;58588;48.102;19.682;2023-02-10T14:37:36;21.40;;;8.23;;
70929;SDS011;58588;48.102;19.682;2023-02-10T14:40:39;19.75;;;7.35;;
70929;SDS011;58588;48.102;19.682;2023-02-10T14:43:45;20.63;;;8.07;;
70929;SDS011;58588;48.102;19.682;2023-02-10T14:46:49;21.50;;;8.00;;
70929;SDS011;58588;48.102;19.682;2023-02-10T14:49:51;18.92;;;7.55;;
70929;SDS011;58588;48.102;19.682;2023-02-10T14:52:55;20.52;;;8.05;;
70929;SDS011;58588;48.102;19.682;2023-02-10T14:55:59;22.13;;;8.10;;
70929;SDS011;58588;48.102;19.682;2023-02-10T14:59:02;21.87;;;8.13;;
70929;SDS011;58588;48.102;19.682;2023-02-10T15:02:07;20.33;;;7.53;;
70929;SDS011;58588;48.102;19.682;2023-02-10T15:05:18;21.52;;;7.72;;
70929;SDS011;58588;48.102;19.682;2023-02-10T15:08:23;21.13;;;8.40;;
70929;SDS011;58588;48.102;19.682;2023-02-10T15:11:30;20.65;;;7.70;;
70929;SDS011;58588;48.102;19.682;2023-02-10T15:15:00;26.00;;;8.73;;
70929;SDS011;58588;48.102;19.682;2023-02-10T15:18:07;23.23;;;8.73;;
70929;SDS011;58588;48.102;19.682;2023-02-10T15:24:35;24.05;;;8.25;;
70929;SDS011;58588;48.102;19.682;2023-02-10T15:27:38;24.90;;;8.70;;
70929;SDS011;58588;48.102;19.682;2023-02-10T15:30:42;22.03;;;8.60;;
70929;SDS011;58588;48.102;19.682;2023-02-10T15:33:50;43.67;;;16.40;;
70929;SDS011;58588;48.102;19.682;2023-02-10T15:36:57;39.72;;;14.75;;
70929;SDS011;58588;48.102;19.682;2023-02-10T15:40:01;26.13;;;9.38;;
70929;SDS011;58588;48.102;19.682;2023-02-10T15:43:06;27.30;;;9.85;;
70929;SDS011;58588;48.102;19.682;2023-02-10T15:46:28;25.60;;;9.33;;
70929;SDS011;58588;48.102;19.682;2023-02-10T15:49:31;26.27;;;10.20;;
70929;SDS011;58588;48.102;19.682;2023-02-10T15:52:34;26.95;;;9.85;;
70929;SDS011;58588;48.102;19.682;2023-02-10T15:55:40;26.80;;;9.63;;
70929;SDS011;58588;48.102;19.682;2023-02-10T15:58:44;27.23;;;9.48;;
70929;SDS011;58588;48.102;19.682;2023-02-10T16:01:46;22.50;;;8.77;;
70929;SDS011;58588;48.102;19.682;2023-02-10T16:04:48;26.75;;;9.52;;
70929;SDS011;58588;48.102;19.682;2023-02-10T16:07:57;25.92;;;10.00;;
70929;SDS011;58588;48.102;19.682;2023-02-10T16:11:04;27.63;;;10.30;;
70929;SDS011;58588;48.102;19.682;2023-02-10T16:14:15;26.58;;;9.60;;
70929;SDS011;58588;48.102;19.682;2023-02-10T16:17:19;42.50;;;16.60;;
70929;SDS011;58588;48.102;19.682;2023-02-10T16:20:24;28.00;;;10.45;;
70929;SDS011;58588;48.102;19.682;2023-02-10T16:23:28;27.63;;;9.77;;
70929;SDS011;58588;48.102;19.682;2023-02-10T16:26:30;115.45;;;39.13;;
70929;SDS011;58588;48.102;19.682;2023-02-10T16:29:34;69.18;;;24.20;;
70929;SDS011;58588;48.102;19.682;2023-02-10T16:32:36;37.23;;;14.73;;
70929;SDS011;58588;48.102;19.682;2023-02-10T16:35:38;50.05;;;19.08;;
70929;SDS011;58588;48.102;19.682;2023-02-10T16:38:46;49.00;;;18.50;;
70929;SDS011;58588;48.102;19.682;2023-02-10T16:41:48;34.60;;;12.65;;
70929;SDS011;58588;48.102;19.682;2023-02-10T16:44:51;34.13;;;13.02;;
70929;SDS011;58588;48.102;19.682;2023-02-10T16:47:54;28.50;;;11.37;;
70929;SDS011;58588;48.102;19.682;2023-02-10T16:50:56;33.20;;;13.63;;
70929;SDS011;58588;48.102;19.682;2023-02-10T16:53:58;48.38;;;19.05;;
70929;SDS011;58588;48.102;19.682;2023-02-10T16:57:02;44.13;;;16.15;;
70929;SDS011;58588;48.102;19.682;2023-02-10T17:00:08;42.88;;;18.33;;
70929;SDS011;58588;48.102;19.682;2023-02-10T17:03:11;42.40;;;17.87;;
70929;SDS011;58588;48.102;19.682;2023-02-10T17:06:15;48.88;;;20.20;;
70929;SDS011;58588;48.102;19.682;2023-02-10T17:09:23;55.70;;;21.00;;
70929;SDS011;58588;48.102;19.682;2023-02-10T17:12:26;44.30;;;16.98;;
70929;SDS011;58588;48.102;19.682;2023-02-10T17:15:30;41.10;;;15.35;;
70929;SDS011;58588;48.102;19.682;2023-02-10T17:18:32;40.83;;;15.23;;
70929;SDS011;58588;48.102;19.682;2023-02-10T17:21:34;37.13;;;14.32;;
70929;SDS011;58588;48.102;19.682;2023-02-10T17:24:36;40.22;;;14.77;;
70929;SDS011;58588;48.102;19.682;2023-02-10T17:27:38;36.40;;;14.95;;
70929;SDS011;58588;48.102;19.682;2023-02-10T17:30:42;37.72;;;15.25;;
70929;SDS011;58588;48.102;19.682;2023-02-10T17:33:44;38.07;;;15.43;;
70929;SDS011;58588;48.102;19.682;2023-02-10T17:36:49;40.75;;;14.93;;
70929;SDS011;58588;48.102;19.682;2023-02-10T17:39:52;38.58;;;14.95;;
70929;SDS011;58588;48.102;19.682;2023-02-10T17:43:14;44.17;;;17.02;;
70929;SDS011;58588;48.102;19.682;2023-02-10T17:46:17;52.58;;;19.60;;
70929;SDS011;58588;48.102;19.682;2023-02-10T17:49:20;50.40;;;19.03;;
70929;SDS011;58588;48.102;19.682;2023-02-10T17:52:22;42.15;;;17.50;;
70929;SDS011;58588;48.102;19.682;2023-02-10T17:55:24;43.67;;;16.88;;
70929;SDS011;58588;48.102;19.682;2023-02-10T17:58:27;38.42;;;15.60;;
70929;SDS011;58588;48.102;19.682;2023-02-10T18:01:30;39.67;;;15.07;;
70929;SDS011;58588;48.102;19.682;2023-02-10T18:04:32;35.30;;;14.87;;